createdAt,value
2023-01-04T00:00:29.569Z,17.23
2023-01-04T00:05:33.016Z,16.43
2023-01-04T00:10:37.899Z,16.53
2023-01-04T00:15:41.412Z,15.77
2023-01-04T00:20:44.914Z,16.87
2023-01-04T00:25:49.771Z,16.70
2023-01-04T00:30:53.324Z,18.43
2023-01-04T00:35:56.836Z,17.70
2023-01-04T00:41:02.146Z,17.23
2023-01-04T00:46:07.188Z,17.43
2023-01-04T00:51:10.625Z,16.67
2023-01-04T00:56:15.480Z,19.07
2023-01-04T01:01:18.982Z,18.87
2023-01-04T01:06:24.934Z,18.23
2023-01-04T01:11:31.031Z,17.57
2023-01-04T01:22:01.214Z,17.40
2023-01-04T01:27:06.156Z,17.23
2023-01-04T01:32:09.592Z,18.27
2023-01-04T01:37:13.048Z,20.20
2023-01-04T01:42:24.590Z,18.63
2023-01-04T01:47:36.793Z,17.30
2023-01-04T01:52:41.713Z,18.23
2023-01-04T01:57:48.676Z,17.83
2023-01-04T02:03:00.648Z,18.37
2023-01-04T02:08:05.429Z,18.60
2023-01-04T02:13:15.164Z,19.23
2023-01-04T02:18:26.784Z,18.40
2023-01-04T02:24:04.253Z,21.67
2023-01-04T02:29:39.014Z,17.83
2023-01-04T02:34:58.306Z,15.33
2023-01-04T02:40:15.387Z,15.80
2023-01-04T02:45:23.500Z,15.70
2023-01-04T02:50:36.132Z,14.73
2023-01-04T02:55:53.056Z,15.17
2023-01-04T03:01:37.182Z,14.87
2023-01-04T03:06:50.822Z,13.67
2023-01-04T03:12:16.889Z,16.77
2023-01-04T03:17:24.018Z,14.90
2023-01-04T03:22:52.731Z,15.60
2023-01-04T03:28:16.963Z,15.33
2023-01-04T03:33:49.818Z,14.33
2023-01-04T03:39:19.034Z,15.13
2023-01-04T03:44:45.168Z,15.27
2023-01-04T03:49:57.753Z,14.30
2023-01-04T03:55:04.902Z,14.13
2023-01-04T04:00:12.504Z,13.90
2023-01-04T04:05:36.676Z,17.13
2023-01-04T04:10:41.540Z,14.47
2023-01-04T04:15:45.043Z,15.00
2023-01-04T04:20:48.518Z,14.93
2023-01-04T04:25:53.392Z,15.53
2023-01-04T04:30:56.825Z,13.73
2023-01-04T04:36:00.315Z,14.50
2023-01-04T04:41:27.788Z,13.50
2023-01-04T04:46:31.235Z,13.97
2023-01-04T04:51:34.824Z,13.77
2023-01-04T04:56:39.911Z,13.67
2023-01-04T05:01:43.731Z,15.10
2023-01-04T05:06:49.392Z,15.63
2023-01-04T05:12:11.439Z,16.07
2023-01-04T05:17:14.886Z,13.60
2023-01-04T05:22:18.417Z,13.63
2023-01-04T05:27:23.314Z,11.33
2023-01-04T05:32:26.857Z,10.13
2023-01-04T05:37:30.467Z,10.10
2023-01-04T05:42:35.386Z,10.10
2023-01-04T05:47:38.936Z,6.13
2023-01-04T05:52:42.413Z,6.17
2023-01-04T05:57:47.606Z,6.00
2023-01-04T06:02:52.744Z,6.20
2023-01-04T06:07:56.225Z,7.97
2023-01-04T06:13:01.229Z,9.87
2023-01-04T06:18:08.738Z,10.93
2023-01-04T06:23:16.529Z,9.90
2023-01-04T06:28:21.422Z,4.07
2023-01-04T06:33:24.835Z,4.57
2023-01-04T06:38:28.673Z,4.57
2023-01-04T06:43:33.520Z,4.37
2023-01-04T06:48:36.939Z,5.83
2023-01-04T06:53:40.315Z,4.70
2023-01-04T06:58:45.344Z,6.03
2023-01-04T07:03:51.499Z,4.50
2023-01-04T07:08:56.309Z,5.47
2023-01-04T07:14:01.257Z,4.40
2023-01-04T07:19:04.873Z,4.50
2023-01-04T07:24:08.319Z,4.10
2023-01-04T07:29:15.852Z,4.70
2023-01-04T07:34:21.267Z,4.87
2023-01-04T07:39:24.981Z,5.00
2023-01-04T07:44:29.802Z,6.30
2023-01-04T07:49:33.828Z,6.03
2023-01-04T07:54:37.396Z,5.33
2023-01-04T07:59:49.809Z,5.13
2023-01-04T08:04:53.207Z,4.97
2023-01-04T08:09:56.570Z,4.33
2023-01-04T08:15:01.460Z,4.20
2023-01-04T08:20:05.439Z,5.40
2023-01-04T08:25:09.399Z,4.00
2023-01-04T08:30:14.287Z,3.67
2023-01-04T08:35:17.854Z,3.27
2023-01-04T08:40:21.229Z,3.33
2023-01-04T08:45:26.145Z,3.93
2023-01-04T08:50:29.541Z,4.60
2023-01-04T08:55:32.956Z,3.40
2023-01-04T09:00:37.798Z,3.03
2023-01-04T09:05:41.616Z,3.17
2023-01-04T09:10:44.997Z,3.40
2023-01-04T09:15:49.886Z,3.93
2023-01-04T09:20:53.358Z,3.53
2023-01-04T09:25:56.890Z,3.53
2023-01-04T09:31:06.699Z,3.40
2023-01-04T09:36:12.356Z,2.40
2023-01-04T09:41:23.681Z,3.00
2023-01-04T09:46:34.191Z,5.07
2023-01-04T09:51:40.295Z,4.33
2023-01-04T09:56:50.691Z,2.73
2023-01-04T10:02:00.264Z,3.07
2023-01-04T10:07:05.362Z,2.27
2023-01-04T10:12:19.628Z,1.87
2023-01-04T10:23:09.493Z,2.10
2023-01-04T10:28:30.868Z,2.10
2023-01-04T10:33:44.240Z,1.50
2023-01-04T10:38:48.030Z,1.73
2023-01-04T10:44:10.859Z,1.47
2023-01-04T10:49:25.095Z,1.40
2023-01-04T10:54:34.691Z,1.43
2023-01-04T10:59:44.416Z,1.20
2023-01-04T11:04:58.835Z,1.43
2023-01-04T11:10:08.136Z,1.20
2023-01-04T11:15:12.213Z,3.03
2023-01-04T11:20:17.259Z,1.30
2023-01-04T11:25:38.764Z,0.93
2023-01-04T11:30:50.270Z,1.77
2023-01-04T11:35:59.040Z,1.50
2023-01-04T11:41:06.000Z,1.60
2023-01-04T11:46:24.645Z,2.10
2023-01-04T11:51:41.593Z,2.20
2023-01-04T11:57:03.645Z,1.53
2023-01-04T12:02:50.408Z,1.80
2023-01-04T12:07:45.706Z,1.93
2023-01-04T12:12:49.516Z,2.00
2023-01-04T12:17:57.480Z,2.40
2023-01-04T12:23:02.529Z,1.63
2023-01-04T12:28:06.984Z,1.60
2023-01-04T12:33:39.849Z,1.97
2023-01-04T12:39:05.130Z,2.47
2023-01-04T12:44:51.996Z,1.67
2023-01-04T12:50:03.135Z,2.00
2023-01-04T12:55:27.439Z,1.97
2023-01-04T13:01:04.666Z,1.90
2023-01-04T13:06:08.764Z,2.00
2023-01-04T13:11:42.008Z,3.17
2023-01-04T13:16:54.934Z,1.60
2023-01-04T13:21:58.820Z,3.03
2023-01-04T13:27:10.480Z,2.10
2023-01-04T13:32:16.636Z,2.03
2023-01-04T13:37:33.131Z,1.53
2023-01-04T13:42:41.855Z,1.60
2023-01-04T13:47:46.663Z,1.23
2023-01-04T13:53:03.652Z,1.30
2023-01-04T13:58:18.764Z,1.20
2023-01-04T14:03:42.844Z,1.30
2023-01-04T14:08:52.432Z,2.00
2023-01-04T14:13:57.375Z,2.57
2023-01-04T14:19:20.923Z,1.63
2023-01-04T14:25:08.409Z,1.33
2023-01-04T14:29:59.772Z,3.20
2023-01-04T14:35:22.054Z,1.33
2023-01-04T14:40:28.363Z,1.37
2023-01-04T14:45:33.305Z,2.93
2023-01-04T14:50:36.793Z,3.07
2023-01-04T14:55:40.708Z,3.43
2023-01-04T15:00:47.312Z,2.47
2023-01-04T15:05:50.858Z,4.77
2023-01-04T15:10:59.794Z,2.50
2023-01-04T15:16:05.324Z,1.80
2023-01-04T15:21:09.518Z,2.07
2023-01-04T15:26:13.511Z,2.63
2023-01-04T15:31:21.039Z,2.23
2023-01-04T15:36:29.420Z,1.43
2023-01-04T15:41:50.382Z,2.30
2023-01-04T15:46:56.755Z,3.53
2023-01-04T15:52:00.349Z,3.20
2023-01-04T15:57:03.746Z,2.50
2023-01-04T16:02:11.212Z,2.70
2023-01-04T16:07:14.676Z,2.57
2023-01-04T16:12:35.661Z,2.87
2023-01-04T16:17:40.860Z,3.93
2023-01-04T16:22:44.481Z,2.57
2023-01-04T16:27:47.896Z,3.33
2023-01-04T16:32:52.830Z,5.53
2023-01-04T16:37:56.505Z,2.53
2023-01-04T16:42:59.922Z,4.20
2023-01-04T16:48:05.723Z,3.40
2023-01-04T16:53:09.501Z,3.50
2023-01-04T16:58:13.866Z,2.97
2023-01-04T17:03:18.782Z,2.67
2023-01-04T17:08:26.975Z,5.50
2023-01-04T17:13:30.812Z,6.33
2023-01-04T17:18:36.668Z,4.67
2023-01-04T17:23:42.798Z,3.70
2023-01-04T17:28:47.384Z,3.57
2023-01-04T17:33:53.278Z,5.40
2023-01-04T17:38:57.346Z,6.07
2023-01-04T17:44:02.387Z,3.03
2023-01-04T17:49:22.223Z,3.50
2023-01-04T17:54:28.510Z,2.87
2023-01-04T17:59:32.591Z,9.97
2023-01-04T18:04:38.672Z,6.77
2023-01-04T18:09:42.833Z,5.23
2023-01-04T18:14:49.376Z,4.43
2023-01-04T18:19:55.644Z,5.60
2023-01-04T18:25:00.366Z,5.43
2023-01-04T18:30:05.026Z,6.07
2023-01-04T18:35:12.410Z,6.93
2023-01-04T18:40:16.668Z,8.50
2023-01-04T18:45:22.285Z,6.83
2023-01-04T18:50:32.030Z,5.77
2023-01-04T18:55:39.784Z,7.67
2023-01-04T19:00:45.250Z,6.83
2023-01-04T19:05:51.159Z,8.03
2023-01-04T19:10:56.051Z,12.10
2023-01-04T19:16:00.950Z,5.53
2023-01-04T19:21:07.306Z,8.20
2023-01-04T19:26:12.118Z,7.00
2023-01-04T19:31:20.514Z,7.57
2023-01-04T19:36:26.542Z,7.27
2023-01-04T19:41:35.023Z,8.17
2023-01-04T19:46:41.420Z,9.80
2023-01-04T19:51:49.504Z,13.10
2023-01-04T19:56:54.255Z,8.47
2023-01-04T20:02:02.167Z,9.10
2023-01-04T20:07:09.219Z,6.67
2023-01-04T20:12:14.187Z,6.10
2023-01-04T20:17:18.380Z,6.67
2023-01-04T20:22:25.865Z,16.87
2023-01-04T20:27:30.903Z,8.03
2023-01-04T20:32:37.865Z,6.57
2023-01-04T20:37:44.789Z,7.37
2023-01-04T20:43:06.255Z,5.53
2023-01-04T20:48:10.603Z,6.77
2023-01-04T20:53:16.723Z,8.17
2023-01-04T20:58:21.963Z,7.67
2023-01-04T21:03:26.239Z,7.73
2023-01-04T21:08:32.826Z,6.80
2023-01-04T21:13:37.371Z,5.97
2023-01-04T21:18:41.825Z,4.93
2023-01-04T21:23:51.793Z,6.23
2023-01-04T21:28:58.219Z,4.87
2023-01-04T21:34:05.494Z,5.17
2023-01-04T21:39:13.270Z,6.07
2023-01-04T21:44:16.937Z,6.40
2023-01-04T21:49:20.413Z,9.97
2023-01-04T21:54:25.889Z,5.37
2023-01-04T21:59:29.326Z,6.37
2023-01-04T22:04:33.386Z,5.73
2023-01-04T22:09:38.309Z,5.10
2023-01-04T22:14:41.764Z,6.27
2023-01-04T22:19:45.279Z,6.20
2023-01-04T22:24:50.143Z,5.20
2023-01-04T22:29:53.535Z,5.40
2023-01-04T22:34:56.959Z,7.33
2023-01-04T22:40:01.842Z,6.17
2023-01-04T22:45:12.816Z,6.67
2023-01-04T22:50:16.934Z,5.70
2023-01-04T22:55:22.252Z,6.77
2023-01-04T23:00:25.957Z,7.00
2023-01-04T23:05:29.394Z,6.97
2023-01-04T23:10:36.104Z,7.20
2023-01-04T23:15:39.761Z,7.70
2023-01-04T23:20:43.186Z,5.70
2023-01-04T23:25:48.048Z,5.93
2023-01-04T23:30:51.773Z,5.63
2023-01-04T23:35:55.275Z,5.23
2023-01-04T23:41:00.167Z,5.93
2023-01-04T23:46:07.398Z,8.53
2023-01-04T23:51:11.323Z,9.87
2023-01-04T23:56:17.250Z,6.03
